Portada
METAR-TAF:

METAR-TAF

Aeroports :

Changchun, Xina

latitud: 43-54N, longitud: 125-13E, altitud: 238 m

Observació

L'informe es va fer fa 15 minuts, a les 10:00 UTC
Vent 8 kt del Sud
Temperatura 0°C
Humitat 37%
Pressió 1026 hPa
Visibilitat 10 km o més
sense núvols per sota de 1500 mi sense presència de cumulonimbus.

METAR: ZYCC 271000Z 19004MPS CAVOK 00/M13 Q1026 NOSIG

Hora: 18:15 (10:15 UTC)

Pronòstic

L'informe es va fer fa 8 hores i 59 minuts, a les 01:16 UTC
Pronòstic vàlid del 27 a les 06 UTC al 28 a les 06 UTC
Vent 8 kt del Sud/Sud-Oest
Visibilitat: 5000 m
Cel ennuvolat a una alçada de 3000 ft
boirina
Evolucionant progressivament
l' 28 a les 01 UTC al 28 a les 02 UTC
Visibilitat: 1400 m
neu

TAF: ZYCC 270116Z 2706/2806 21004MPS 5000 BR BKN030 TX02/2706Z TNM08/2721Z BECMG 2801/2802 1400 -SN

Observacions i pronòstics meteorològics de més de 4000 aeroports (METAR i TAF).

Les estacions disponibles són els punts grocs i vermells al mapa.

Posi el ratolí al punt desitjat per veure el nom de l'estació.

Feu clic per veure les observacions i els pronòstics meteorològics.

Per canviar el mapa: feu clic els botons verds amb una creu de color negre per apropar; al botó verd amb un guió per allunyar la imatge; o en les fletxes verdes per a mapes adjacents.


METAR-TAF: